Time;durP1;ratioP1;P1;durP2;ratioP2;P2;SDS_P1;SDS_P2;PMS_P1;PMS_P2;Temp;Humidity;BMP_temperature;BMP_pressure;BME280_temperature;BME280_humidity;BME280_pressure;Samples;Min_cycle;Max_cycle;Signal;HPM_P1;HPM_P2
2020/12/19 00:01:59;;;;;;;;;63.50;50.00;;;;;;;;12287567;28;8835;-47
2020/12/19 00:08:14;;;;;;;;;51.50;42.75;;;;;;;;12288257;28;8839;-55
2020/12/19 00:14:16;;;;;;;;;51.50;44.75;;;;;;;;12287355;28;8847;-46
2020/12/19 00:20:17;;;;;;;;;53.25;45.75;;;;;;;;12288142;28;8874;-52
2020/12/19 00:26:19;;;;;;;;;45.00;38.75;;;;;;;;12286289;28;8851;-49
2020/12/19 00:32:20;;;;;;;;;50.25;44.50;;;;;;;;12287037;28;8854;-49
2020/12/19 00:38:28;;;;;;;;;58.00;45.50;;;;;;;;12287650;28;8859;-49
2020/12/19 00:44:31;;;;;;;;;53.75;43.75;;;;;;;;12286221;28;8863;-47
2020/12/19 00:50:33;;;;;;;;;56.50;45.00;;;;;;;;12287560;29;8978;-48
2020/12/19 00:56:34;;;;;;;;;53.50;44.75;;;;;;;;12285895;29;9634;-48
2020/12/19 01:02:37;;;;;;;;;59.75;45.25;;;;;;;;12268779;28;8866;-48
2020/12/19 01:08:54;;;;;;;;;63.00;50.50;;;;;;;;12279344;29;8968;-48
2020/12/19 01:15:08;;;;;;;;;58.50;46.75;;;;;;;;12285778;28;8898;-48
2020/12/19 01:21:14;;;;;;;;;56.00;46.25;;;;;;;;12286378;29;8858;-50
2020/12/19 01:27:15;;;;;;;;;49.00;43.50;;;;;;;;12284902;28;8878;-51
2020/12/19 01:33:17;;;;;;;;;46.25;38.50;;;;;;;;12289132;28;9630;-52
2020/12/19 01:39:19;;;;;;;;;44.00;39.50;;;;;;;;12294406;28;8854;-49
2020/12/19 01:45:20;;;;;;;;;52.25;43.75;;;;;;;;12293066;28;8944;-49
2020/12/19 01:51:21;;;;;;;;;48.25;40.00;;;;;;;;12295379;28;8843;-51
2020/12/19 01:57:28;;;;;;;;;48.75;43.25;;;;;;;;12292874;28;8871;-51
2020/12/19 02:03:30;;;;;;;;;52.50;47.00;;;;;;;;12293171;28;8953;-49
2020/12/19 02:09:39;;;;;;;;;53.00;46.25;;;;;;;;12293740;28;9040;-51
2020/12/19 02:15:45;;;;;;;;;42.75;32.00;;;;;;;;12291555;28;8877;-49
2020/12/19 02:21:46;;;;;;;;;43.00;37.25;;;;;;;;12285688;28;8916;-51
2020/12/19 02:27:49;;;;;;;;;59.75;47.00;;;;;;;;12291435;28;8866;-50
2020/12/19 02:33:52;;;;;;;;;50.25;45.50;;;;;;;;12292604;28;8831;-46
2020/12/19 02:39:54;;;;;;;;;49.25;40.50;;;;;;;;12291558;28;8872;-50
2020/12/19 02:45:58;;;;;;;;;52.50;44.50;;;;;;;;12290190;28;8855;-48
2020/12/19 02:51:59;;;;;;;;;58.50;43.75;;;;;;;;12292196;28;9623;-49
2020/12/19 02:58:00;;;;;;;;;46.50;42.00;;;;;;;;12290753;28;8839;-47
2020/12/19 03:04:02;;;;;;;;;49.50;42.00;;;;;;;;12291237;28;8877;-46
2020/12/19 03:10:06;;;;;;;;;46.00;37.75;;;;;;;;12289728;28;8862;-49
2020/12/19 03:16:07;;;;;;;;;50.50;43.00;;;;;;;;12289922;28;9872;-49
2020/12/19 03:22:09;;;;;;;;;42.75;40.00;;;;;;;;12290764;28;8846;-48
2020/12/19 03:28:10;;;;;;;;;46.25;42.25;;;;;;;;12289422;28;8886;-52
2020/12/19 03:34:12;;;;;;;;;38.25;32.25;;;;;;;;12290365;28;8823;-50
2020/12/19 03:40:18;;;;;;;;;38.75;36.25;;;;;;;;12289421;28;8847;-46
2020/12/19 03:46:19;;;;;;;;;43.00;35.50;;;;;;;;12288647;28;8843;-47
2020/12/19 03:52:21;;;;;;;;;44.25;37.50;;;;;;;;12289558;28;8851;-49
2020/12/19 03:58:22;;;;;;;;;40.50;38.50;;;;;;;;12286928;28;8843;-46
2020/12/19 04:04:24;;;;;;;;;49.75;36.75;;;;;;;;12288364;28;8873;-51
2020/12/19 04:10:34;;;;;;;;;40.25;38.25;;;;;;;;12286899;28;8843;-48
2020/12/19 04:16:35;;;;;;;;;48.75;39.25;;;;;;;;12286897;28;9418;-51
2020/12/19 04:22:36;;;;;;;;;45.75;41.75;;;;;;;;12288190;28;9250;-48
2020/12/19 04:28:38;;;;;;;;;41.50;36.75;;;;;;;;12286564;28;9646;-49
2020/12/19 04:34:39;;;;;;;;;44.75;37.25;;;;;;;;12287481;28;8859;-49
2020/12/19 04:40:52;;;;;;;;;43.50;37.00;;;;;;;;12278083;28;8867;-51
2020/12/19 04:46:54;;;;;;;;;27.25;23.50;;;;;;;;12286286;28;8847;-47
2020/12/19 04:52:55;;;;;;;;;42.00;33.00;;;;;;;;12286342;29;8881;-49
2020/12/19 04:59:00;;;;;;;;;42.00;35.75;;;;;;;;12286431;29;9644;-47
2020/12/19 05:05:05;;;;;;;;;38.25;35.25;;;;;;;;12272642;28;8867;-51
2020/12/19 05:11:14;;;;;;;;;35.50;35.50;;;;;;;;12292540;28;8862;-47
2020/12/19 05:17:16;;;;;;;;;42.25;37.25;;;;;;;;12295099;28;8889;-49
2020/12/19 05:23:17;;;;;;;;;48.25;42.25;;;;;;;;12295308;28;8881;-49
2020/12/19 05:29:19;;;;;;;;;34.25;31.75;;;;;;;;12294196;28;8843;-48
2020/12/19 05:35:23;;;;;;;;;41.75;37.75;;;;;;;;12295598;28;8847;-50
2020/12/19 05:41:29;;;;;;;;;46.50;40.00;;;;;;;;12293702;28;8858;-51
2020/12/19 05:47:30;;;;;;;;;41.25;34.25;;;;;;;;12293947;28;8883;-47
2020/12/19 05:53:34;;;;;;;;;43.75;40.50;;;;;;;;12294763;28;8874;-48
2020/12/19 05:59:36;;;;;;;;;41.75;32.00;;;;;;;;12294516;28;9621;-49
2020/12/19 06:05:40;;;;;;;;;45.75;39.00;;;;;;;;12294028;28;8894;-51
2020/12/19 06:11:57;;;;;;;;;52.00;45.00;;;;;;;;12284883;28;8843;-49
2020/12/19 06:18:07;;;;;;;;;40.00;35.25;;;;;;;;12292158;28;8839;-50
2020/12/19 06:24:08;;;;;;;;;32.00;29.25;;;;;;;;12292252;28;9039;-50
2020/12/19 06:30:29;;;;;;;;;44.00;39.00;;;;;;;;12291415;28;8870;-49
2020/12/19 06:36:32;;;;;;;;;38.75;32.50;;;;;;;;12293563;28;8885;-48
2020/12/19 06:42:33;;;;;;;;;42.00;34.00;;;;;;;;12291709;28;8849;-48
2020/12/19 06:48:35;;;;;;;;;32.25;29.75;;;;;;;;12291592;28;8873;-50
2020/12/19 06:54:48;;;;;;;;;41.75;32.75;;;;;;;;12290333;28;8979;-51
2020/12/19 07:00:50;;;;;;;;;45.25;36.25;;;;;;;;12283920;28;8895;-48
2020/12/19 07:07:15;;;;;;;;;42.25;37.00;;;;;;;;12292002;28;8855;-51
2020/12/19 07:13:17;;;;;;;;;37.75;37.00;;;;;;;;12289666;28;9556;-50
2020/12/19 07:19:28;;;;;;;;;43.50;38.25;;;;;;;;12291129;28;8898;-48
2020/12/19 07:25:32;;;;;;;;;47.00;41.00;;;;;;;;12279325;28;8863;-53
2020/12/19 07:31:34;;;;;;;;;34.25;28.50;;;;;;;;12289419;28;8850;-50
2020/12/19 07:37:36;;;;;;;;;43.00;37.75;;;;;;;;12289155;28;8893;-52
2020/12/19 07:43:39;;;;;;;;;52.00;43.00;;;;;;;;12287815;28;8846;-47
2020/12/19 07:49:48;;;;;;;;;53.75;44.25;;;;;;;;12289285;28;8835;-49
2020/12/19 07:55:51;;;;;;;;;45.75;42.75;;;;;;;;12280554;28;8891;-53
2020/12/19 08:01:55;;;;;;;;;44.75;40.75;;;;;;;;12289061;28;8873;-52
2020/12/19 08:07:56;;;;;;;;;28.75;27.50;;;;;;;;12287409;28;8910;-49
2020/12/19 08:13:57;;;;;;;;;44.50;40.50;;;;;;;;12287195;28;8889;-54
2020/12/19 08:20:00;;;;;;;;;44.00;37.75;;;;;;;;12288999;28;8850;-50
2020/12/19 08:26:01;;;;;;;;;52.50;42.25;;;;;;;;12287003;28;8855;-51
2020/12/19 08:32:03;;;;;;;;;43.25;37.50;;;;;;;;12287081;28;8882;-50
2020/12/19 08:38:06;;;;;;;;;55.25;45.00;;;;;;;;12270332;28;8871;-52
2020/12/19 08:44:25;;;;;;;;;48.00;42.00;;;;;;;;12285560;28;9681;-50
2020/12/19 08:50:32;;;;;;;;;50.00;43.75;;;;;;;;12287287;29;8855;-50
2020/12/19 08:56:35;;;;;;;;;50.00;41.00;;;;;;;;12286021;29;9628;-50
2020/12/19 09:02:38;;;;;;;;;45.00;42.75;;;;;;;;12286414;29;8855;-51
2020/12/19 09:08:44;;;;;;;;;55.00;45.75;;;;;;;;12285206;28;8875;-50
2020/12/19 09:14:46;;;;;;;;;66.00;50.50;;;;;;;;12277156;29;8992;-49
2020/12/19 09:20:58;;;;;;;;;54.75;45.50;;;;;;;;12275494;28;8959;-53
2020/12/19 09:27:00;;;;;;;;;44.00;41.75;;;;;;;;12275840;28;8855;-50
2020/12/19 09:33:02;;;;;;;;;56.00;46.25;;;;;;;;12285887;29;8862;-50
2020/12/19 09:39:05;;;;;;;;;54.25;47.00;;;;;;;;12284549;29;8847;-52
2020/12/19 09:45:06;;;;;;;;;51.75;45.50;;;;;;;;12284469;29;8970;-49
2020/12/19 09:51:13;;;;;;;;;56.00;46.25;;;;;;;;12285833;29;8847;-53
2020/12/19 09:57:15;;;;;;;;;43.00;38.50;;;;;;;;12291129;28;8969;-54
2020/12/19 10:03:16;;;;;;;;;50.50;42.00;;;;;;;;12294265;28;8863;-51
2020/12/19 10:09:18;;;;;;;;;39.50;36.75;;;;;;;;12292622;28;8863;-52
2020/12/19 10:15:19;;;;;;;;;44.25;35.00;;;;;;;;12292372;28;8937;-52
2020/12/19 10:21:20;;;;;;;;;51.75;44.50;;;;;;;;12293488;28;8936;-49
2020/12/19 10:27:22;;;;;;;;;45.00;37.00;;;;;;;;12291669;28;8897;-52
2020/12/19 10:33:23;;;;;;;;;43.00;37.00;;;;;;;;12289376;28;9631;-49
2020/12/19 10:39:24;;;;;;;;;42.50;35.25;;;;;;;;12283846;28;8843;-52
2020/12/19 10:45:26;;;;;;;;;37.75;35.25;;;;;;;;12291277;28;8870;-48
2020/12/19 10:51:29;;;;;;;;;42.25;36.00;;;;;;;;12291193;28;8839;-47
2020/12/19 10:57:31;;;;;;;;;46.25;41.25;;;;;;;;12291231;28;8878;-49
2020/12/19 11:03:33;;;;;;;;;39.50;37.00;;;;;;;;12278469;28;9627;-52
2020/12/19 11:09:34;;;;;;;;;42.25;35.50;;;;;;;;12289203;28;8882;-52
2020/12/19 11:15:39;;;;;;;;;41.75;36.25;;;;;;;;12290217;28;8858;-51
2020/12/19 11:21:44;;;;;;;;;47.50;41.00;;;;;;;;12291127;28;8973;-52
2020/12/19 11:27:46;;;;;;;;;49.00;37.25;;;;;;;;12280547;28;8834;-57
2020/12/19 11:33:48;;;;;;;;;40.25;39.50;;;;;;;;12287640;28;8870;-50
2020/12/19 11:39:53;;;;;;;;;51.50;43.75;;;;;;;;12287177;28;8953;-52
2020/12/19 11:45:54;;;;;;;;;60.00;47.75;;;;;;;;12287858;28;8885;-53
2020/12/19 11:51:59;;;;;;;;;53.50;44.50;;;;;;;;12289410;28;8871;-51
2020/12/19 11:58:01;;;;;;;;;44.50;36.75;;;;;;;;12287658;28;8870;-52
2020/12/19 12:04:02;;;;;;;;;58.75;45.00;;;;;;;;12287898;28;8878;-50
2020/12/19 12:10:04;;;;;;;;;63.25;49.00;;;;;;;;12287517;28;8917;-49
2020/12/19 12:16:08;;;;;;;;;57.75;50.00;;;;;;;;12286612;28;8859;-53
2020/12/19 12:22:10;;;;;;;;;49.50;42.25;;;;;;;;12287901;28;9624;-51
2020/12/19 12:28:11;;;;;;;;;50.50;43.25;;;;;;;;12286714;28;9965;-51
2020/12/19 12:34:13;;;;;;;;;65.50;51.25;;;;;;;;12287313;28;9619;-53
2020/12/19 12:40:14;;;;;;;;;67.75;56.75;;;;;;;;12286559;28;8863;-51
2020/12/19 12:46:17;;;;;;;;;67.50;50.75;;;;;;;;12285935;28;8851;-51
2020/12/19 12:52:19;;;;;;;;;66.75;54.25;;;;;;;;12287504;29;8859;-48
2020/12/19 12:58:20;;;;;;;;;67.00;54.00;;;;;;;;12285503;29;8909;-50
2020/12/19 13:04:23;;;;;;;;;68.75;56.00;;;;;;;;12286182;28;8839;-52
2020/12/19 13:10:24;;;;;;;;;73.75;58.50;;;;;;;;12285980;29;9581;-51
2020/12/19 13:16:26;;;;;;;;;74.25;59.00;;;;;;;;12285795;29;8974;-49
2020/12/19 13:22:29;;;;;;;;;72.00;56.00;;;;;;;;12286461;29;8839;-51
2020/12/19 13:28:30;;;;;;;;;66.00;53.00;;;;;;;;12262514;28;8842;-51
2020/12/19 13:34:32;;;;;;;;;60.50;50.25;;;;;;;;12294475;28;8908;-53
2020/12/19 13:40:33;;;;;;;;;66.25;50.25;;;;;;;;12295084;28;8924;-49
2020/12/19 13:46:34;;;;;;;;;56.00;46.50;;;;;;;;12293050;28;8866;-53
2020/12/19 13:52:38;;;;;;;;;74.50;54.25;;;;;;;;12294361;28;8869;-53
2020/12/19 13:58:40;;;;;;;;;63.25;51.25;;;;;;;;12292473;28;8969;-52
2020/12/19 14:04:42;;;;;;;;;64.75;54.00;;;;;;;;12293270;28;8886;-53
2020/12/19 14:10:44;;;;;;;;;71.00;54.25;;;;;;;;12285959;28;8855;-53
2020/12/19 14:16:45;;;;;;;;;67.50;51.00;;;;;;;;12292462;28;8877;-49
2020/12/19 14:22:47;;;;;;;;;64.00;51.25;;;;;;;;12294078;28;8847;-51
2020/12/19 14:28:49;;;;;;;;;62.75;51.25;;;;;;;;12291754;28;8863;-51
2020/12/19 14:34:50;;;;;;;;;57.50;48.50;;;;;;;;12291433;28;8936;-50
2020/12/19 14:40:53;;;;;;;;;58.25;48.00;;;;;;;;12291665;28;8847;-51
2020/12/19 14:47:03;;;;;;;;;72.25;55.50;;;;;;;;12291400;28;8961;-50
2020/12/19 14:53:04;;;;;;;;;58.50;48.25;;;;;;;;12291507;28;8882;-52
2020/12/19 14:59:06;;;;;;;;;63.00;51.75;;;;;;;;12289954;28;8855;-51
2020/12/19 15:05:07;;;;;;;;;71.50;55.25;;;;;;;;12289548;28;9033;-50
2020/12/19 15:11:16;;;;;;;;;70.00;55.50;;;;;;;;12291255;28;8867;-53
2020/12/19 15:17:20;;;;;;;;;63.00;50.25;;;;;;;;12289431;28;8979;-48
2020/12/19 15:23:21;;;;;;;;;75.50;57.75;;;;;;;;12290538;28;8843;-54
2020/12/19 15:29:23;;;;;;;;;78.25;61.25;;;;;;;;12289548;28;8835;-55
2020/12/19 15:35:25;;;;;;;;;74.00;57.50;;;;;;;;12287956;28;8854;-52
2020/12/19 15:41:26;;;;;;;;;80.25;60.00;;;;;;;;12290016;28;8835;-54
2020/12/19 15:47:29;;;;;;;;;71.75;59.25;;;;;;;;12288386;28;8878;-54
2020/12/19 15:53:33;;;;;;;;;75.25;58.75;;;;;;;;12288303;28;8917;-51
2020/12/19 15:59:35;;;;;;;;;77.50;58.25;;;;;;;;12288474;28;8839;-51
2020/12/19 16:05:36;;;;;;;;;72.75;56.50;;;;;;;;12287140;28;8889;-51
2020/12/19 16:11:38;;;;;;;;;74.75;57.25;;;;;;;;12289161;28;8881;-51
2020/12/19 16:17:45;;;;;;;;;71.75;52.00;;;;;;;;12279486;28;8850;-51
2020/12/19 16:23:47;;;;;;;;;77.00;60.25;;;;;;;;12288354;28;8846;-53
2020/12/19 16:29:48;;;;;;;;;69.75;54.25;;;;;;;;12286662;28;8875;-57
2020/12/19 16:35:50;;;;;;;;;68.25;50.25;;;;;;;;12286427;28;8925;-49
2020/12/19 16:41:52;;;;;;;;;70.75;54.00;;;;;;;;12287504;28;8831;-52
2020/12/19 16:48:04;;;;;;;;;74.00;56.00;;;;;;;;12286770;28;8865;-53
2020/12/19 16:54:13;;;;;;;;;77.50;60.75;;;;;;;;12286861;28;8835;-53
2020/12/19 17:00:15;;;;;;;;;66.00;51.25;;;;;;;;12285622;29;8851;-52
2020/12/19 17:06:27;;;;;;;;;64.75;51.25;;;;;;;;12291356;28;8886;-52
2020/12/19 17:12:32;;;;;;;;;70.25;53.25;;;;;;;;12295941;28;8863;-49
2020/12/19 17:18:33;;;;;;;;;62.75;51.25;;;;;;;;12295446;28;8842;-51
2020/12/19 17:24:36;;;;;;;;;62.50;50.50;;;;;;;;12295970;28;8847;-54
2020/12/19 17:30:37;;;;;;;;;67.00;55.00;;;;;;;;12269792;28;8831;-53
2020/12/19 17:36:39;;;;;;;;;64.50;51.25;;;;;;;;12294161;28;8847;-53
2020/12/19 17:42:41;;;;;;;;;67.75;50.50;;;;;;;;12295096;28;9636;-57
2020/12/19 17:48:42;;;;;;;;;71.25;55.75;;;;;;;;12293036;28;8858;-52
2020/12/19 17:54:43;;;;;;;;;66.00;54.00;;;;;;;;12294441;28;8850;-50
2020/12/19 18:00:45;;;;;;;;;57.00;45.00;;;;;;;;12281282;28;8872;-51
2020/12/19 18:06:46;;;;;;;;;69.25;55.00;;;;;;;;12286070;28;8866;-53
2020/12/19 18:12:48;;;;;;;;;70.00;55.00;;;;;;;;12293783;28;8854;-49
2020/12/19 18:18:59;;;;;;;;;66.75;52.25;;;;;;;;12291583;28;8846;-53
2020/12/19 18:25:00;;;;;;;;;70.00;57.00;;;;;;;;12293467;28;8863;-52
2020/12/19 18:31:01;;;;;;;;;66.25;54.25;;;;;;;;12291945;28;8952;-51
2020/12/19 18:37:03;;;;;;;;;70.00;55.00;;;;;;;;12291087;28;8867;-49
2020/12/19 18:43:04;;;;;;;;;63.75;51.50;;;;;;;;12292850;28;8851;-53
2020/12/19 18:49:18;;;;;;;;;47.00;39.25;;;;;;;;12291035;28;8989;-55
2020/12/19 18:55:21;;;;;;;;;68.50;54.25;;;;;;;;12292261;28;8847;-49
2020/12/19 19:01:22;;;;;;;;;56.50;50.25;;;;;;;;12290160;28;8827;-49
2020/12/19 19:07:25;;;;;;;;;66.00;53.75;;;;;;;;12290728;28;8878;-53
2020/12/19 19:13:26;;;;;;;;;62.00;50.00;;;;;;;;12290155;28;8863;-50
2020/12/19 19:19:34;;;;;;;;;70.25;53.25;;;;;;;;12289474;28;8835;-51
2020/12/19 19:25:35;;;;;;;;;69.50;52.00;;;;;;;;12290005;28;8858;-49
2020/12/19 19:31:44;;;;;;;;;64.50;51.00;;;;;;;;12288835;28;8846;-51
2020/12/19 19:37:45;;;;;;;;;60.00;49.50;;;;;;;;12281804;28;8851;-49
2020/12/19 19:43:47;;;;;;;;;58.50;49.25;;;;;;;;12289318;28;8874;-54
2020/12/19 19:49:52;;;;;;;;;66.25;51.00;;;;;;;;12287842;28;8859;-52
2020/12/19 19:55:55;;;;;;;;;60.25;51.25;;;;;;;;12289439;28;8873;-49
2020/12/19 20:01:56;;;;;;;;;65.25;52.75;;;;;;;;12286884;28;8862;-50
2020/12/19 20:07:57;;;;;;;;;64.50;53.25;;;;;;;;12288482;28;8866;-52
2020/12/19 20:13:59;;;;;;;;;62.25;50.00;;;;;;;;12286536;28;8969;-53
2020/12/19 20:20:07;;;;;;;;;61.00;50.00;;;;;;;;12285699;28;8839;-52
2020/12/19 20:26:08;;;;;;;;;60.50;50.25;;;;;;;;12288279;28;8862;-50
2020/12/19 20:32:10;;;;;;;;;64.75;51.00;;;;;;;;12286531;28;9573;-55
2020/12/19 20:38:12;;;;;;;;;62.50;50.25;;;;;;;;12285516;28;8850;-51
2020/12/19 20:44:14;;;;;;;;;65.00;49.50;;;;;;;;12286072;28;8902;-55
2020/12/19 20:50:26;;;;;;;;;62.00;49.00;;;;;;;;12285466;28;8855;-48
2020/12/19 20:56:27;;;;;;;;;63.75;47.75;;;;;;;;12286457;29;8843;-49
2020/12/19 21:02:29;;;;;;;;;70.50;53.75;;;;;;;;12284887;29;8871;-49
2020/12/19 21:08:30;;;;;;;;;67.25;51.00;;;;;;;;12287004;28;9782;-52
2020/12/19 21:14:33;;;;;;;;;58.75;46.00;;;;;;;;12284307;29;8871;-49
2020/12/19 21:20:47;;;;;;;;;63.25;48.50;;;;;;;;12277665;29;8838;-51
2020/12/19 21:26:49;;;;;;;;;57.75;46.00;;;;;;;;12286506;29;9686;-48
2020/12/19 21:32:50;;;;;;;;;59.50;44.75;;;;;;;;12284782;28;8922;-51
2020/12/19 21:38:51;;;;;;;;;57.25;45.25;;;;;;;;12285741;29;8843;-49
2020/12/19 21:44:53;;;;;;;;;52.50;43.00;;;;;;;;12285067;29;9010;-50
2020/12/19 21:51:03;;;;;;;;;52.50;44.00;;;;;;;;12287831;28;8851;-52
2020/12/19 21:57:04;;;;;;;;;47.25;41.75;;;;;;;;12294485;28;10038;-51
2020/12/19 22:03:05;;;;;;;;;55.50;46.50;;;;;;;;12291770;28;9004;-53
2020/12/19 22:09:08;;;;;;;;;53.75;42.50;;;;;;;;12293588;28;8870;-51
2020/12/19 22:15:11;;;;;;;;;49.25;43.25;;;;;;;;12290871;28;8871;-51
2020/12/19 22:21:21;;;;;;;;;53.00;41.25;;;;;;;;12291848;28;8847;-55
2020/12/19 22:27:30;;;;;;;;;48.50;40.25;;;;;;;;12293441;28;8850;-52
2020/12/19 22:33:32;;;;;;;;;44.75;38.75;;;;;;;;12291941;28;8851;-54
2020/12/19 22:39:33;;;;;;;;;47.00;37.50;;;;;;;;12292057;28;8835;-50
2020/12/19 22:45:35;;;;;;;;;45.75;42.00;;;;;;;;12290765;28;9315;-48
2020/12/19 22:51:46;;;;;;;;;45.25;37.25;;;;;;;;12291084;28;8912;-49
2020/12/19 22:57:47;;;;;;;;;43.75;37.25;;;;;;;;12283116;28;9026;-51
2020/12/19 23:03:49;;;;;;;;;46.75;41.75;;;;;;;;12288463;28;8941;-50
2020/12/19 23:09:51;;;;;;;;;42.00;33.00;;;;;;;;12291485;28;9597;-53
2020/12/19 23:15:52;;;;;;;;;38.25;32.75;;;;;;;;12289563;28;8866;-50
2020/12/19 23:22:00;;;;;;;;;41.50;33.25;;;;;;;;12289294;28;8839;-50
2020/12/19 23:28:01;;;;;;;;;32.75;27.25;;;;;;;;12288985;28;8858;-53
2020/12/19 23:34:03;;;;;;;;;27.25;25.50;;;;;;;;12288597;28;8850;-51
2020/12/19 23:40:06;;;;;;;;;29.50;26.25;;;;;;;;12289687;28;8851;-49
2020/12/19 23:46:07;;;;;;;;;25.50;23.00;;;;;;;;12287424;28;8854;-50
2020/12/19 23:52:17;;;;;;;;;24.75;20.25;;;;;;;;12288061;28;8862;-49
2020/12/19 23:58:18;;;;;;;;;18.25;17.50;;;;;;;;12287095;28;8886;-48
